Time;durP1;ratioP1;P1;durP2;ratioP2;P2;SDS_P1;SDS_P2;PMS_P1;PMS_P2;Temp;Humidity;BMP_temperature;BMP_pressure;BME280_temperature;BME280_humidity;BME280_pressure;Samples;Min_cycle;Max_cycle;Signal;HPM_P1;HPM_P2
2023/06/01 00:02:23;;;;;;;3.15;1.60;;;;;;;23.87;33.18;101492.63;5034220;27;99642;-63
2023/06/01 00:04:52;;;;;;;6.88;1.42;;;;;;;23.45;34.18;101492.25;5032656;27;98914;-65
2023/06/01 00:07:18;;;;;;;5.40;1.48;;;;;;;23.58;33.90;101497.59;5037531;27;96829;-64
2023/06/01 00:09:44;;;;;;;2.78;1.40;;;;;;;23.65;33.80;101488.03;5032900;27;97300;-65
2023/06/01 00:12:11;;;;;;;5.88;1.70;;;;;;;23.35;34.43;101496.66;5032015;27;98994;-66
2023/06/01 00:14:37;;;;;;;3.45;1.63;;;;;;;23.48;34.09;101492.06;5034741;27;99630;-66
2023/06/01 00:17:05;;;;;;;6.10;1.98;;;;;;;23.24;34.87;101493.91;5030336;27;96920;-65
2023/06/01 00:19:31;;;;;;;3.10;1.55;;;;;;;23.14;35.12;101496.47;5034832;27;96905;-65
2023/06/01 00:21:59;;;;;;;5.20;1.60;;;;;;;23.02;35.27;101498.25;5029765;27;98946;-66
2023/06/01 00:24:26;;;;;;;3.97;1.58;;;;;;;22.93;35.63;101495.38;5030804;27;100619;-65
2023/06/01 00:26:52;;;;;;;3.08;1.50;;;;;;;22.90;35.85;101491.13;5029154;27;96743;-66
2023/06/01 00:29:18;;;;;;;6.45;1.67;;;;;;;22.67;36.48;101495.47;5033058;27;96945;-65
2023/06/01 00:31:45;;;;;;;4.95;1.90;;;;;;;22.56;36.85;101487.34;5032952;27;99081;-65
2023/06/01 00:34:12;;;;;;;4.80;1.73;;;;;;;22.64;36.80;101490.31;5035521;27;99024;-65
2023/06/01 00:36:38;;;;;;;5.80;1.88;;;;;;;22.26;37.49;101486.88;5026703;27;97826;-65
2023/06/01 00:39:06;;;;;;;3.33;1.80;;;;;;;22.33;37.52;101487.28;5028804;27;97838;-64
2023/06/01 00:41:33;;;;;;;2.53;1.83;;;;;;;22.40;37.25;101496.66;5032249;27;99191;-65
2023/06/01 00:44:00;;;;;;;5.35;1.70;;;;;;;22.33;37.43;101495.38;5038047;27;98802;-65
2023/06/01 00:46:26;;;;;;;3.28;1.70;;;;;;;22.45;37.10;101494.50;5031405;27;96850;-65
2023/06/01 00:48:53;;;;;;;13.27;2.08;;;;;;;22.20;37.93;101492.72;5037694;27;96947;-65
2023/06/01 00:51:20;;;;;;;3.92;1.73;;;;;;;22.27;37.73;101489.47;5029084;27;98174;-65
2023/06/01 00:53:47;;;;;;;6.55;1.60;;;;;;;22.39;37.21;101494.91;5031642;27;101761;-66
2023/06/01 00:56:15;;;;;;;4.85;1.83;;;;;;;22.20;37.87;101490.88;5033595;27;97244;-66
2023/06/01 00:58:42;;;;;;;2.78;1.70;;;;;;;22.14;37.68;101488.63;5032981;27;99283;-65
2023/06/01 01:01:18;;;;;;;5.55;1.65;;;;;;;22.19;37.91;101486.47;5028261;27;98966;-64
2023/06/01 01:03:46;;;;;;;1.52;1.20;;;;;;;22.33;37.55;101490.84;5037297;27;99537;-66
2023/06/01 01:06:27;;;;;;;6.20;1.48;;;;;;;22.33;37.85;101490.84;5033055;27;96871;-66
2023/06/01 01:09:07;;;;;;;4.55;1.75;;;;;;;22.44;37.83;101492.78;5029582;27;97221;-65
2023/06/01 01:11:38;;;;;;;3.50;1.63;;;;;;;22.08;38.63;101488.22;5028543;27;99413;-65
2023/06/01 01:14:10;;;;;;;3.70;1.83;;;;;;;22.06;38.69;101485.63;5031033;27;99379;-65
2023/06/01 01:16:45;;;;;;;6.50;2.10;;;;;;;22.06;38.87;101482.94;5028015;27;96793;-65
2023/06/01 01:19:36;;;;;;;3.13;1.55;;;;;;;21.83;39.67;101481.88;5034461;27;96934;-65
2023/06/01 01:22:15;;;;;;;3.83;1.80;;;;;;;22.19;38.67;101488.28;5027351;27;99665;-67
2023/06/01 01:24:56;;;;;;;9.05;1.80;;;;;;;22.00;39.30;101478.00;5030336;27;102184;-64
2023/06/01 01:27:39;;;;;;;3.17;1.80;;;;;;;21.91;39.75;101483.16;5032805;27;97166;-65
2023/06/01 01:30:08;;;;;;;5.93;1.52;;;;;;;21.67;40.06;101485.72;5030063;27;97325;-64
2023/06/01 01:32:35;;;;;;;7.50;1.88;;;;;;;21.58;40.48;101487.25;5026718;27;99075;-65
2023/06/01 01:35:04;;;;;;;3.53;1.73;;;;;;;21.46;40.68;101488.94;5033855;27;99630;-65
2023/06/01 01:37:30;;;;;;;5.90;1.92;;;;;;;21.34;41.29;101491.63;5030125;27;97606;-65
2023/06/01 01:39:56;;;;;;;6.63;1.90;;;;;;;21.43;41.03;101493.69;5031304;27;96949;-64
2023/06/01 01:42:23;;;;;;;4.63;1.90;;;;;;;21.22;41.84;101492.47;5021622;27;98876;-66
2023/06/01 01:44:49;;;;;;;4.50;2.00;;;;;;;20.96;42.62;101488.81;5029256;27;102149;-65
2023/06/01 01:47:23;;;;;;;4.70;1.90;;;;;;;20.86;42.66;101487.72;5029525;27;96831;-65
2023/06/01 01:49:54;;;;;;;4.28;1.58;;;;;;;20.94;42.88;101480.00;5030856;27;96867;-65
2023/06/01 01:52:27;;;;;;;3.30;1.90;;;;;;;20.78;43.29;101485.53;5027787;27;99058;-66
2023/06/01 01:54:55;;;;;;;7.63;2.20;;;;;;;20.93;42.96;101478.28;5021054;27;98795;-65
2023/06/01 01:57:24;;;;;;;5.35;2.25;;;;;;;20.82;43.20;101473.63;5028531;27;98790;-65
2023/06/01 01:59:52;;;;;;;3.97;1.80;;;;;;;20.66;43.67;101481.00;5035829;27;97106;-66
2023/06/01 02:02:20;;;;;;;5.05;2.00;;;;;;;20.74;43.57;101473.28;5029081;27;99211;-65
2023/06/01 02:04:46;;;;;;;8.13;2.08;;;;;;;20.74;43.80;101473.28;5028718;27;99287;-65
2023/06/01 02:07:13;;;;;;;8.57;2.17;;;;;;;20.68;44.00;101473.66;5031520;27;98388;-65
2023/06/01 02:09:40;;;;;;;15.05;2.58;;;;;;;20.62;44.29;101474.94;5028150;27;96882;-65
2023/06/01 02:12:07;;;;;;;3.83;1.90;;;;;;;20.79;43.93;101464.91;5028386;27;98921;-65
2023/06/01 02:14:33;;;;;;;6.18;1.90;;;;;;;20.59;44.54;101471.63;5039624;27;98979;-65
2023/06/01 02:17:00;;;;;;;6.20;2.28;;;;;;;20.61;44.50;101477.75;5032595;27;96816;-65
2023/06/01 02:19:28;;;;;;;4.45;2.10;;;;;;;20.68;44.38;101479.03;5036122;27;96922;-65
2023/06/01 02:21:54;;;;;;;12.27;2.45;;;;;;;20.28;45.55;101476.25;5034872;27;99483;-64
2023/06/01 02:24:21;;;;;;;6.93;2.60;;;;;;;20.14;45.84;101475.44;5025604;27;98761;-64
2023/06/01 02:26:48;;;;;;;7.95;2.30;;;;;;;20.10;46.00;101471.19;5031596;27;96975;-65
2023/06/01 02:29:15;;;;;;;6.88;2.80;;;;;;;19.93;46.75;101474.09;5026620;27;96947;-65
2023/06/01 02:31:42;;;;;;;5.57;2.33;;;;;;;19.92;46.74;101470.53;5029783;27;99613;-65
2023/06/01 02:34:08;;;;;;;7.20;2.47;;;;;;;19.78;47.25;101471.41;5034435;27;98831;-65
2023/06/01 02:36:36;;;;;;;7.85;2.47;;;;;;;19.92;46.98;101467.88;5031113;27;97160;-65
2023/06/01 02:39:02;;;;;;;4.93;2.80;;;;;;;19.80;47.30;101468.63;5036495;27;96813;-66
2023/06/01 02:41:29;;;;;;;9.88;3.22;;;;;;;19.83;47.10;101463.94;5035872;27;98952;-65
2023/06/01 02:43:55;;;;;;;6.60;2.70;;;;;;;19.88;47.20;101471.72;5035524;27;101826;-65
2023/06/01 02:46:22;;;;;;;6.22;3.20;;;;;;;19.73;47.82;101468.16;5037173;27;96821;-64
2023/06/01 02:48:48;;;;;;;16.15;3.33;;;;;;;19.96;47.11;101469.38;5037114;27;100354;-65
2023/06/01 02:51:15;;;;;;;11.02;3.22;;;;;;;19.92;47.33;101464.31;5037866;27;98929;-61
2023/06/01 02:53:43;;;;;;;9.13;3.25;;;;;;;19.94;47.40;101465.97;5038011;27;98789;-64
2023/06/01 02:56:10;;;;;;;7.43;2.97;;;;;;;19.67;48.09;101460.50;5036323;27;97392;-65
2023/06/01 02:58:37;;;;;;;9.75;3.00;;;;;;;19.74;47.77;101455.63;5037984;27;96963;-64
2023/06/01 03:01:03;;;;;;;8.82;3.20;;;;;;;19.61;48.43;101460.88;5026914;27;99269;-65
2023/06/01 03:03:30;;;;;;;7.63;2.97;;;;;;;19.80;47.96;101458.78;5031940;27;98981;-65
2023/06/01 03:05:57;;;;;;;9.23;3.10;;;;;;;19.83;47.76;101458.56;5032370;27;96845;-65
2023/06/01 03:08:24;;;;;;;8.32;2.72;;;;;;;19.83;47.80;101463.94;5037071;27;97672;-65
2023/06/01 03:10:52;;;;;;;7.85;3.30;;;;;;;19.63;48.75;101466.13;5029670;27;98972;-65
2023/06/01 03:13:18;;;;;;;14.13;3.53;;;;;;;19.66;48.31;101461.44;5032826;27;98791;-65
2023/06/01 03:15:45;;;;;;;8.80;3.60;;;;;;;19.86;48.02;101468.25;5040933;27;97235;-65
2023/06/01 03:18:11;;;;;;;8.13;3.47;;;;;;;19.95;47.83;101458.78;5031327;27;96988;-65
2023/06/01 03:20:38;;;;;;;12.40;3.92;;;;;;;19.64;48.60;101463.34;5032543;27;98806;-66
2023/06/01 03:23:04;;;;;;;9.20;3.80;;;;;;;19.81;48.39;101462.31;5038926;27;98877;-65
2023/06/01 03:25:31;;;;;;;8.10;3.88;;;;;;;19.85;48.38;101469.22;5027197;27;96837;-65
2023/06/01 03:27:58;;;;;;;10.63;3.72;;;;;;;19.72;48.59;101466.44;5031893;27;96997;-65
2023/06/01 03:30:25;;;;;;;12.40;3.90;;;;;;;19.87;48.35;101478.03;5032541;27;99113;-63
2023/06/01 03:32:51;;;;;;;8.13;3.90;;;;;;;19.70;48.79;101472.84;5031268;27;99175;-63
2023/06/01 03:35:18;;;;;;;10.65;3.92;;;;;;;19.67;48.85;101467.69;5038285;27;96787;-62
2023/06/01 03:37:46;;;;;;;10.15;3.95;;;;;;;19.26;50.21;101479.06;5036194;27;96891;-62
2023/06/01 03:40:24;;;;;;;11.05;4.38;;;;;;;19.24;50.60;101480.09;5031493;27;100348;-63
2023/06/01 03:42:50;;;;;;;13.65;4.35;;;;;;;18.99;51.40;101475.34;5023562;27;99264;-62
2023/06/01 03:45:18;;;;;;;12.32;4.45;;;;;;;19.02;51.10;101470.69;5039177;27;96798;-62
2023/06/01 03:47:45;;;;;;;9.60;4.82;;;;;;;19.36;49.93;101480.22;5037127;27;96970;-61
2023/06/01 03:50:12;;;;;;;15.52;4.75;;;;;;;19.55;49.76;101480.03;5035268;27;100927;-62
2023/06/01 03:52:39;;;;;;;13.70;4.55;;;;;;;19.63;49.37;101477.72;5030640;27;99407;-62
2023/06/01 03:55:09;;;;;;;12.48;4.82;;;;;;;19.18;50.55;101475.13;5024419;27;98680;-62
2023/06/01 03:57:36;;;;;;;12.13;4.93;;;;;;;19.60;49.50;101474.38;5028207;27;96822;-62
2023/06/01 04:00:17;;;;;;;17.33;5.32;;;;;;;19.64;49.44;101474.06;5031225;27;99506;-62
2023/06/01 04:02:48;;;;;;;20.02;5.57;;;;;;;19.33;50.59;101468.84;5033825;27;99090;-62
2023/06/01 04:05:16;;;;;;;12.50;4.47;;;;;;;19.56;49.58;101462.97;5033851;27;96870;-62
2023/06/01 04:07:43;;;;;;;11.43;4.65;;;;;;;19.85;48.92;101462.03;5039579;27;97348;-62
2023/06/01 04:10:12;;;;;;;10.40;4.45;;;;;;;19.71;49.14;101464.69;5032158;27;99317;-62
2023/06/01 04:12:38;;;;;;;15.65;5.15;;;;;;;19.47;49.96;101461.72;5029600;27;99799;-62
2023/06/01 04:15:06;;;;;;;10.70;4.78;;;;;;;19.44;50.23;101466.38;5036367;27;97517;-62
2023/06/01 04:17:32;;;;;;;13.38;4.82;;;;;;;19.65;49.46;101466.91;5038923;27;96845;-63
2023/06/01 04:20:00;;;;;;;10.65;4.45;;;;;;;19.72;49.48;101474.47;5038225;27;98891;-62
2023/06/01 04:22:26;;;;;;;13.48;5.68;;;;;;;19.46;50.08;101476.06;5035355;27;98300;-62
2023/06/01 04:24:52;;;;;;;11.98;5.50;;;;;;;19.50;50.23;101477.59;5034347;27;96971;-62
2023/06/01 04:27:20;;;;;;;13.88;6.03;;;;;;;19.20;50.66;101479.44;5033940;27;96943;-63
2023/06/01 04:29:48;;;;;;;14.13;5.95;;;;;;;19.21;51.03;101488.34;5030152;27;99450;-63
2023/06/01 04:32:21;;;;;;;19.80;7.25;;;;;;;19.09;51.42;101493.47;5032403;27;99222;-63
2023/06/01 04:34:49;;;;;;;16.15;6.70;;;;;;;19.18;51.06;101483.16;5032987;27;97599;-62
2023/06/01 04:37:20;;;;;;;11.77;6.70;;;;;;;18.80;51.86;101497.00;5032022;27;97363;-62
2023/06/01 04:39:48;;;;;;;18.13;7.28;;;;;;;18.99;51.71;101491.41;5027823;27;99266;-62
2023/06/01 04:42:16;;;;;;;12.32;7.20;;;;;;;19.16;51.36;101488.63;5032770;27;98912;-62
2023/06/01 04:44:43;;;;;;;16.63;7.90;;;;;;;19.46;50.35;101484.13;5028313;27;97269;-62
2023/06/01 04:47:09;;;;;;;24.58;7.70;;;;;;;19.01;51.58;101486.84;5025365;27;98555;-62
2023/06/01 04:49:36;;;;;;;16.33;7.25;;;;;;;19.01;51.57;101493.06;5029282;27;99694;-62
2023/06/01 04:52:04;;;;;;;19.92;7.97;;;;;;;18.59;52.82;101496.41;5039259;27;98899;-62
2023/06/01 04:54:31;;;;;;;15.15;7.45;;;;;;;18.30;53.91;101489.13;5032448;27;97564;-63
2023/06/01 04:56:58;;;;;;;14.85;7.20;;;;;;;18.45;53.52;101490.06;5033012;27;96878;-63
2023/06/01 04:59:25;;;;;;;17.10;7.28;;;;;;;18.78;52.75;101492.66;5029514;27;100823;-61
2023/06/01 05:01:51;;;;;;;16.25;6.70;;;;;;;18.51;53.25;101495.94;5033121;27;98876;-62
2023/06/01 05:04:17;;;;;;;19.25;7.32;;;;;;;18.52;53.38;101486.97;5030892;27;96960;-62
2023/06/01 05:06:44;;;;;;;19.83;7.22;;;;;;;18.24;54.09;101487.66;5032744;27;97620;-63
2023/06/01 05:09:10;;;;;;;17.20;6.93;;;;;;;18.48;53.56;101493.44;5035160;27;100430;-62
2023/06/01 05:11:38;;;;;;;22.17;7.70;;;;;;;18.42;53.48;101496.47;5034159;27;97590;-62
2023/06/01 05:14:04;;;;;;;16.00;6.95;;;;;;;18.66;52.70;101489.75;5031887;27;98991;-64
2023/06/01 05:16:31;;;;;;;17.58;6.85;;;;;;;18.28;53.58;101501.72;5029613;27;96956;-61
2023/06/01 05:18:57;;;;;;;16.10;6.78;;;;;;;18.68;52.30;101493.22;5029020;27;98973;-63
2023/06/01 05:21:24;;;;;;;17.45;7.57;;;;;;;19.16;50.52;101483.28;5027343;27;99659;-64
2023/06/01 05:23:50;;;;;;;16.00;6.35;;;;;;;18.98;51.17;101478.97;5034372;27;99442;-64
2023/06/01 05:26:17;;;;;;;14.85;6.82;;;;;;;18.99;50.85;101478.03;5026588;27;96944;-63
2023/06/01 05:28:44;;;;;;;17.05;6.93;;;;;;;19.25;50.27;101490.72;5028275;27;99134;-62
2023/06/01 05:31:11;;;;;;;16.38;6.97;;;;;;;19.16;50.15;101485.09;5029977;27;101370;-62
2023/06/01 05:33:37;;;;;;;15.57;6.75;;;;;;;19.56;48.95;101483.56;5033921;27;97025;-62
2023/06/01 05:36:04;;;;;;;13.15;5.93;;;;;;;19.07;50.33;101492.69;5029304;27;96967;-62
2023/06/01 05:38:31;;;;;;;11.43;6.13;;;;;;;18.69;50.51;101486.03;5020140;27;99002;-62
2023/06/01 05:40:57;;;;;;;18.95;5.90;;;;;;;18.66;50.31;101497.78;5021847;27;98762;-63
2023/06/01 05:43:23;;;;;;;14.98;5.63;;;;;;;18.48;50.93;101490.75;5022265;27;97253;-65
2023/06/01 05:45:51;;;;;;;20.77;6.78;;;;;;;18.48;50.67;101495.25;5015494;27;99984;-63
2023/06/01 05:48:18;;;;;;;11.77;5.63;;;;;;;18.42;50.79;101498.28;5021725;27;99296;-63
2023/06/01 05:50:44;;;;;;;12.68;5.60;;;;;;;18.37;50.83;101498.53;5018813;27;99942;-62
2023/06/01 05:53:11;;;;;;;11.88;5.53;;;;;;;18.68;49.68;101498.56;5023848;27;96832;-63
2023/06/01 05:55:37;;;;;;;15.43;5.55;;;;;;;18.91;49.08;101507.06;5031204;27;97202;-63
2023/06/01 05:58:04;;;;;;;14.15;4.97;;;;;;;19.06;48.28;101503.50;5033668;27;99150;-63
2023/06/01 06:00:31;;;;;;;14.93;5.75;;;;;;;19.07;47.87;101503.41;5026914;27;99527;-63
2023/06/01 06:02:58;;;;;;;11.80;5.45;;;;;;;18.74;48.32;101507.19;5033846;27;97828;-63
2023/06/01 06:05:25;;;;;;;13.63;5.40;;;;;;;18.93;47.99;101507.84;5030384;27;97029;-63
2023/06/01 06:07:51;;;;;;;13.25;5.10;;;;;;;18.80;48.14;101505.03;5031230;27;98907;-62
2023/06/01 06:10:18;;;;;;;12.10;5.22;;;;;;;18.77;48.37;101507.03;5029189;27;99320;-62
2023/06/01 06:12:44;;;;;;;9.65;4.72;;;;;;;18.68;48.49;101505.72;5022621;27;98599;-62
2023/06/01 06:15:11;;;;;;;9.23;5.03;;;;;;;18.41;49.27;101504.56;5021366;27;99168;-62
2023/06/01 06:17:37;;;;;;;15.63;5.85;;;;;;;18.31;49.33;101498.88;5034639;27;99020;-62
2023/06/01 06:20:07;;;;;;;13.93;4.70;;;;;;;18.43;48.83;101498.19;5032057;27;99213;-63
2023/06/01 06:22:34;;;;;;;8.60;4.60;;;;;;;18.61;48.70;101499.84;5026720;27;96901;-62
2023/06/01 06:25:00;;;;;;;16.15;5.15;;;;;;;18.92;47.94;101490.03;5035746;27;96981;-63
2023/06/01 06:27:27;;;;;;;11.02;5.03;;;;;;;19.15;46.97;101486.91;5035370;27;99183;-62
2023/06/01 06:29:53;;;;;;;18.95;5.70;;;;;;;19.67;45.40;101497.16;5035454;27;98897;-62
2023/06/01 06:32:20;;;;;;;16.15;5.32;;;;;;;19.42;45.38;101492.41;5032327;27;96888;-63
2023/06/01 06:34:49;;;;;;;10.82;4.97;;;;;;;19.76;44.58;101496.59;5029099;27;96892;-63
2023/06/01 06:37:17;;;;;;;14.00;5.00;;;;;;;19.88;44.09;101493.16;5030956;27;99014;-63
2023/06/01 06:39:45;;;;;;;18.15;4.60;;;;;;;20.21;43.16;101501.78;5038979;27;99487;-67
2023/06/01 06:42:11;;;;;;;10.43;4.22;;;;;;;20.44;42.81;101505.69;5035594;27;97818;-63
2023/06/01 06:44:38;;;;;;;12.88;4.90;;;;;;;20.44;42.16;101505.69;5031927;27;96978;-63
2023/06/01 06:47:05;;;;;;;14.15;4.65;;;;;;;20.30;42.23;101506.53;5037496;27;98878;-63
2023/06/01 06:49:31;;;;;;;14.98;5.57;;;;;;;19.94;43.31;101505.31;5031403;27;99640;-62
2023/06/01 06:51:58;;;;;;;14.38;4.60;;;;;;;20.21;42.74;101500.91;5017722;27;97441;-64
2023/06/01 06:54:25;;;;;;;10.25;4.10;;;;;;;19.19;44.85;101498.28;5026686;27;96858;-64
2023/06/01 06:56:52;;;;;;;11.27;4.50;;;;;;;19.44;44.15;101498.53;5032916;27;100866;-63
2023/06/01 06:59:18;;;;;;;10.88;4.65;;;;;;;19.65;44.15;101499.94;5035764;27;98803;-62
2023/06/01 07:01:44;;;;;;;12.50;4.75;;;;;;;19.07;45.50;101498.06;5024774;27;96851;-63
2023/06/01 07:04:11;;;;;;;10.15;4.63;;;;;;;18.96;46.08;101503.19;5026299;27;96895;-62
2023/06/01 07:06:37;;;;;;;17.45;5.43;;;;;;;19.14;45.79;101493.19;5028880;27;97894;-64
2023/06/01 07:09:05;;;;;;;13.68;5.05;;;;;;;19.30;45.20;101496.66;5029488;27;98846;-61
2023/06/01 07:11:33;;;;;;;10.70;4.72;;;;;;;19.61;44.72;101494.88;5034900;27;96744;-63
2023/06/01 07:13:59;;;;;;;16.67;4.68;;;;;;;19.55;44.50;101501.47;5028169;27;97140;-65
2023/06/01 07:16:26;;;;;;;11.32;4.82;;;;;;;19.58;44.28;101503.94;5026985;27;102106;-64
2023/06/01 07:18:52;;;;;;;11.30;4.88;;;;;;;19.94;43.11;101503.50;5031166;27;98887;-63
2023/06/01 07:21:19;;;;;;;12.88;4.78;;;;;;;20.41;41.98;101503.22;5026200;27;97191;-62
2023/06/01 07:23:46;;;;;;;12.10;4.95;;;;;;;20.45;41.53;101496.66;5028366;27;97355;-63
2023/06/01 07:26:12;;;;;;;11.48;4.25;;;;;;;20.47;41.56;101499.25;5020097;27;99318;-63
2023/06/01 07:28:41;;;;;;;10.25;4.95;;;;;;;21.32;39.91;101499.81;5027224;27;98846;-63
2023/06/01 07:31:08;;;;;;;13.70;4.82;;;;;;;21.47;39.19;101490.66;5032650;27;96796;-62
2023/06/01 07:33:35;;;;;;;9.52;4.90;;;;;;;21.13;39.49;101495.75;5024184;27;98717;-63
2023/06/01 07:36:02;;;;;;;14.13;4.95;;;;;;;21.04;39.61;101506.16;5029215;27;99191;-63
2023/06/01 07:38:28;;;;;;;19.83;4.65;;;;;;;21.23;39.64;101497.75;5029263;27;98887;-63
2023/06/01 07:40:54;;;;;;;13.27;4.88;;;;;;;21.27;39.85;101493.88;5029082;27;96848;-62
2023/06/01 07:43:21;;;;;;;9.98;4.43;;;;;;;21.46;39.32;101488.94;5032039;27;98070;-63
2023/06/01 07:45:48;;;;;;;17.50;5.90;;;;;;;22.16;37.81;101484.00;5030985;27;99003;-64
2023/06/01 07:48:15;;;;;;;12.77;4.63;;;;;;;21.68;38.87;101484.75;5033655;27;99096;-62
2023/06/01 07:50:41;;;;;;;9.00;4.53;;;;;;;21.57;38.93;101482.84;5028068;27;96780;-63
2023/06/01 07:53:08;;;;;;;11.52;4.50;;;;;;;21.12;39.50;101484.16;5032603;27;97654;-69
2023/06/01 07:55:34;;;;;;;15.98;5.05;;;;;;;20.07;42.29;101485.69;5024798;27;99073;-63
2023/06/01 07:58:00;;;;;;;10.88;4.45;;;;;;;20.20;42.01;101481.25;5032009;27;99356;-62
2023/06/01 08:00:27;;;;;;;8.70;4.07;;;;;;;20.66;40.86;101487.22;5030808;27;98273;-62
2023/06/01 08:02:55;;;;;;;14.13;4.50;;;;;;;21.01;39.74;101484.00;5022422;27;97670;-63
2023/06/01 08:05:21;;;;;;;12.13;4.95;;;;;;;21.19;39.64;101474.75;5023417;27;99062;-63
2023/06/01 08:07:48;;;;;;;12.52;4.32;;;;;;;21.39;38.75;101478.75;5025747;27;99238;-63
2023/06/01 08:10:15;;;;;;;12.40;4.30;;;;;;;21.90;38.05;101465.28;5017465;27;96905;-63
2023/06/01 08:12:42;;;;;;;12.20;4.85;;;;;;;21.90;37.95;101470.66;5031048;27;97400;-63
2023/06/01 08:15:11;;;;;;;12.77;4.45;;;;;;;21.43;38.61;101472.19;5017660;27;99035;-63
2023/06/01 08:17:38;;;;;;;11.63;4.63;;;;;;;21.56;38.70;101473.03;5029766;27;99210;-63
2023/06/01 08:20:10;;;;;;;18.10;4.38;;;;;;;20.97;39.55;101471.75;5030390;27;97038;-63
2023/06/01 08:22:37;;;;;;;11.32;4.28;;;;;;;21.44;38.73;101463.16;5022734;27;98726;-63
2023/06/01 08:25:03;;;;;;;10.27;4.35;;;;;;;21.69;38.27;101463.16;5029255;27;99238;-63
2023/06/01 08:27:30;;;;;;;13.00;4.80;;;;;;;21.49;38.91;101466.38;5032289;27;98999;-62
2023/06/01 08:29:56;;;;;;;19.60;5.07;;;;;;;21.82;38.16;101453.25;5033170;27;97855;-63
2023/06/01 08:32:23;;;;;;;11.32;4.57;;;;;;;22.02;37.84;101459.06;5027406;27;98784;-64
2023/06/01 08:34:50;;;;;;;6.15;4.10;;;;;;;21.95;37.81;101460.44;5018877;27;98974;-63
2023/06/01 08:37:18;;;;;;;13.68;4.57;;;;;;;21.47;38.79;101452.16;5022289;27;98828;-64
2023/06/01 08:39:45;;;;;;;12.20;5.18;;;;;;;21.15;39.69;101453.50;5018010;27;98457;-62
2023/06/01 08:42:16;;;;;;;11.88;4.75;;;;;;;21.35;39.44;101453.88;5026464;27;98824;-63
2023/06/01 08:44:43;;;;;;;12.55;4.75;;;;;;;21.12;39.76;101446.53;5015889;27;99582;-64
2023/06/01 08:47:09;;;;;;;15.02;5.22;;;;;;;21.01;40.42;101447.25;5017319;27;99124;-63
2023/06/01 08:49:37;;;;;;;12.75;4.72;;;;;;;21.32;39.51;101446.06;5015933;27;98581;-63
2023/06/01 08:52:13;;;;;;;11.55;4.57;;;;;;;21.57;39.25;101441.63;5020172;27;98684;-63
2023/06/01 08:54:41;;;;;;;10.95;3.85;;;;;;;22.18;37.96;101443.53;5016354;27;99082;-66
2023/06/01 08:57:08;;;;;;;12.43;4.32;;;;;;;21.70;38.27;101431.75;5023279;27;99270;-66
2023/06/01 08:59:35;;;;;;;8.73;4.30;;;;;;;21.71;38.47;101428.09;5009301;27;98786;-65
2023/06/01 09:02:02;;;;;;;12.15;5.00;;;;;;;21.88;38.31;101433.97;5016680;27;98672;-66
2023/06/01 09:04:30;;;;;;;12.43;4.57;;;;;;;22.28;37.57;101433.78;5012987;27;99031;-65
2023/06/01 09:06:57;;;;;;;14.00;5.50;;;;;;;22.54;37.38;101438.09;5015621;27;99193;-67
2023/06/01 09:09:23;;;;;;;13.20;5.30;;;;;;;22.61;37.36;101433.13;5015171;27;97891;-64
2023/06/01 09:12:23;;;;;;;12.80;4.55;;;;;;;22.15;38.05;101432.97;5011081;27;97930;-65
2023/06/01 09:14:49;;;;;;;10.82;4.88;;;;;;;22.11;38.19;101421.59;5022321;27;102085;-66
2023/06/01 09:17:25;;;;;;;19.55;4.80;;;;;;;21.99;38.45;101432.38;5023667;27;98959;-65
2023/06/01 09:19:54;;;;;;;14.05;4.38;;;;;;;22.03;38.43;101428.50;5022053;27;98702;-65
2023/06/01 09:22:20;;;;;;;14.80;5.65;;;;;;;22.40;37.80;101432.88;5021378;27;98634;-66
2023/06/01 09:24:56;;;;;;;14.82;6.03;;;;;;;22.07;38.16;101424.59;5024375;27;99121;-66
2023/06/01 09:27:24;;;;;;;13.60;5.00;;;;;;;21.71;38.54;101420.88;5024655;27;99151;-66
2023/06/01 09:29:53;;;;;;;12.90;5.25;;;;;;;22.03;37.97;101421.28;5031233;27;97255;-66
2023/06/01 09:32:20;;;;;;;12.82;4.78;;;;;;;22.25;37.37;101418.72;5025382;27;97693;-67
2023/06/01 09:34:47;;;;;;;12.32;4.72;;;;;;;22.61;36.79;101420.50;5019688;27;99132;-65
2023/06/01 09:37:13;;;;;;;17.58;5.00;;;;;;;22.06;37.26;101412.97;5030970;27;99091;-65
2023/06/01 09:39:40;;;;;;;13.40;4.70;;;;;;;21.95;37.81;101409.31;5027173;27;96941;-66
2023/06/01 09:42:07;;;;;;;14.40;4.65;;;;;;;21.97;37.47;101402.88;5029440;27;97236;-67
2023/06/01 09:44:37;;;;;;;13.02;4.85;;;;;;;22.50;36.32;101401.63;5026289;27;99071;-65
2023/06/01 09:47:05;;;;;;;13.38;5.03;;;;;;;23.20;35.30;101396.25;5024473;27;99459;-66
2023/06/01 09:49:32;;;;;;;10.95;4.88;;;;;;;23.47;34.63;101397.75;5021699;27;97342;-66
2023/06/01 09:52:16;;;;;;;9.88;4.88;;;;;;;23.78;33.68;101399.75;5023145;27;97099;-66
2023/06/01 09:54:44;;;;;;;11.85;5.22;;;;;;;23.38;34.67;101393.94;5021236;27;98776;-66
2023/06/01 09:57:11;;;;;;;9.60;5.43;;;;;;;23.42;34.85;101392.72;5020523;27;98994;-66
2023/06/01 09:59:42;;;;;;;14.15;5.53;;;;;;;23.37;35.01;101389.50;5028714;27;96782;-65
2023/06/01 10:02:13;;;;;;;16.98;6.60;;;;;;;23.36;34.98;101391.38;5017945;27;98869;-65
2023/06/01 10:04:40;;;;;;;14.73;6.22;;;;;;;23.16;35.31;101389.38;5013463;27;97973;-66
2023/06/01 10:07:10;;;;;;;12.90;7.00;;;;;;;23.38;35.19;101378.59;5014143;27;98805;-65
2023/06/01 10:09:38;;;;;;;18.30;6.90;;;;;;;23.50;34.96;101384.91;5020380;27;98767;-66
2023/06/01 10:12:06;;;;;;;9.10;6.40;;;;;;;23.81;34.12;101388.72;5030494;27;97063;-65
2023/06/01 10:14:33;;;;;;;14.60;7.32;;;;;;;24.03;33.65;101379.72;5031749;27;99217;-65
2023/06/01 10:17:02;;;;;;;13.85;7.13;;;;;;;23.66;33.51;101381.84;5017903;27;99147;-68
2023/06/01 10:19:28;;;;;;;11.90;7.63;;;;;;;23.18;34.93;101381.16;5030822;27;97193;-65
2023/06/01 10:21:57;;;;;;;19.08;8.50;;;;;;;23.46;34.08;101383.41;5024994;27;98898;-63
2023/06/01 10:24:25;;;;;;;15.80;8.50;;;;;;;23.07;34.93;101373.06;5027845;27;98228;-63
2023/06/01 10:27:01;;;;;;;16.58;9.82;;;;;;;23.53;34.34;101364.94;5027365;27;99276;-65
2023/06/01 10:29:30;;;;;;;14.30;8.33;;;;;;;23.32;35.14;101362.91;5024455;27;98475;-65
2023/06/01 10:31:57;;;;;;;11.75;7.25;;;;;;;23.47;35.24;101368.97;5029084;27;97223;-66
2023/06/01 10:34:45;;;;;;;15.40;7.68;;;;;;;23.72;34.75;101367.84;5029819;27;102426;-65
2023/06/01 10:37:16;;;;;;;16.52;7.57;;;;;;;23.87;34.42;101368.47;5026536;27;97719;-65
2023/06/01 10:39:43;;;;;;;12.75;7.53;;;;;;;23.76;34.14;101358.56;5026102;27;96780;-66
2023/06/01 10:42:38;;;;;;;14.48;8.68;;;;;;;23.20;35.41;101358.50;5026012;27;97735;-66
2023/06/01 10:45:07;;;;;;;16.33;8.60;;;;;;;23.87;34.76;101358.53;5024699;27;101073;-66
2023/06/01 10:47:49;;;;;;;12.93;7.75;;;;;;;24.01;34.39;101362.81;5022163;27;99302;-65
2023/06/01 10:50:19;;;;;;;19.00;9.63;;;;;;;24.01;33.87;101360.97;5030878;27;96881;-66
2023/06/01 10:52:46;;;;;;;20.63;8.85;;;;;;;23.69;34.76;101350.09;5023865;27;97119;-67
2023/06/01 10:55:26;;;;;;;14.38;8.25;;;;;;;23.80;34.48;101358.16;5025995;27;99258;-65
2023/06/01 10:58:24;;;;;;;12.30;8.32;;;;;;;23.60;34.73;101356.22;5027542;27;99204;-66
2023/06/01 11:00:50;;;;;;;;;;;;;;;23.92;34.21;101356.31;5023107;27;98242;-66
2023/06/01 11:03:43;;;;;;;13.35;8.70;;;;;;;23.73;34.53;101350.69;5027378;27;96918;-68
2023/06/01 11:06:25;;;;;;;11.32;7.90;;;;;;;24.31;34.17;101340.53;5022619;27;98600;-65
2023/06/01 11:08:57;;;;;;;20.83;8.80;;;;;;;23.95;34.44;101347.97;5026135;27;101647;-66
2023/06/01 11:11:24;;;;;;;13.10;8.02;;;;;;;23.92;35.09;101339.25;5023826;27;97168;-67
2023/06/01 11:14:10;;;;;;;15.18;8.18;;;;;;;24.50;33.54;101335.28;5019685;27;97423;-64
2023/06/01 11:16:36;;;;;;;12.50;8.10;;;;;;;24.40;33.56;101345.16;5029290;27;99061;-64
2023/06/01 11:19:04;;;;;;;13.48;8.57;;;;;;;24.01;34.31;101350.16;5030089;27;97660;-64
2023/06/01 11:21:35;;;;;;;16.55;8.65;;;;;;;24.30;33.78;101345.06;5021259;27;98879;-63
2023/06/01 11:24:06;;;;;;;14.40;8.30;;;;;;;24.23;33.91;101327.66;5027367;27;97302;-63
2023/06/01 11:26:35;;;;;;;11.82;7.45;;;;;;;24.24;34.27;101332.06;5026129;27;97720;-63